createdAt,value
2023-01-10T00:01:29.082Z,14.67
2023-01-10T00:04:30.906Z,14.13
2023-01-10T00:07:32.500Z,15.87
2023-01-10T00:10:34.439Z,14.50
2023-01-10T00:13:36.046Z,14.43
2023-01-10T00:16:39.419Z,15.67
2023-01-10T00:19:40.984Z,14.13
2023-01-10T00:22:42.888Z,16.50
2023-01-10T00:25:44.708Z,15.53
2023-01-10T00:28:46.299Z,14.77
2023-01-10T00:31:48.689Z,19.50
2023-01-10T00:34:50.406Z,20.50
2023-01-10T00:37:57.710Z,20.00
2023-01-10T00:40:59.494Z,19.43
2023-01-10T00:44:01.087Z,23.00
2023-01-10T00:47:02.752Z,24.27
2023-01-10T00:50:08.722Z,24.77
2023-01-10T00:53:10.318Z,26.60
2023-01-10T00:56:11.985Z,18.67
2023-01-10T00:59:13.647Z,25.43
2023-01-10T01:02:15.463Z,26.97
2023-01-10T01:05:17.494Z,26.33
2023-01-10T01:08:19.369Z,23.30
2023-01-10T01:11:20.946Z,20.80
2023-01-10T01:14:23.373Z,18.87
2023-01-10T01:17:25.040Z,22.50
2023-01-10T01:20:27.037Z,19.50
2023-01-10T01:23:29.189Z,20.80
2023-01-10T01:26:30.856Z,20.70
2023-01-10T01:29:43.059Z,21.57
2023-01-10T01:32:45.154Z,17.63
2023-01-10T01:35:48.053Z,19.23
2023-01-10T01:38:49.672Z,20.67
2023-01-10T01:41:57.257Z,19.13
2023-01-10T01:45:11.360Z,19.30
2023-01-10T01:48:25.304Z,18.47
2023-01-10T01:51:28.542Z,18.93
2023-01-10T01:54:30.588Z,16.40
2023-01-10T01:57:32.981Z,16.27
2023-01-10T02:00:35.461Z,17.50
2023-01-10T02:03:38.149Z,14.67
2023-01-10T02:06:40.455Z,15.73
2023-01-10T02:09:56.693Z,18.23
2023-01-10T02:13:01.472Z,13.70
2023-01-10T02:16:03.197Z,13.60
2023-01-10T02:19:09.157Z,14.53
2023-01-10T02:22:10.783Z,13.10
2023-01-10T02:25:12.482Z,12.90
2023-01-10T02:28:14.034Z,17.70
2023-01-10T02:31:34.145Z,18.97
2023-01-10T02:34:43.013Z,32.90
2023-01-10T02:37:50.758Z,19.57
2023-01-10T02:40:57.300Z,17.93
2023-01-10T02:44:28.418Z,12.93
2023-01-10T02:47:37.311Z,13.37
2023-01-10T02:50:41.878Z,9.57
2023-01-10T02:53:47.070Z,12.03
2023-01-10T02:56:57.525Z,10.80
2023-01-10T03:00:07.654Z,12.83
2023-01-10T03:03:15.152Z,12.90
2023-01-10T03:06:16.782Z,12.13
2023-01-10T03:09:22.171Z,14.30
2023-01-10T03:12:27.240Z,13.43
2023-01-10T03:15:30.480Z,15.07
2023-01-10T03:18:33.791Z,21.70
2023-01-10T03:21:36.198Z,21.20
2023-01-10T03:24:41.966Z,19.80
2023-01-10T03:28:05.315Z,15.13
2023-01-10T03:31:10.174Z,16.07
2023-01-10T03:34:12.209Z,13.67
2023-01-10T03:37:14.217Z,16.23
2023-01-10T03:40:22.725Z,16.80
2023-01-10T03:43:58.281Z,18.70
2023-01-10T03:47:06.092Z,18.23
2023-01-10T03:50:13.255Z,18.10
2023-01-10T03:53:15.576Z,19.97
2023-01-10T03:56:17.193Z,19.83
2023-01-10T03:59:28.324Z,19.63
2023-01-10T04:02:31.465Z,19.67
2023-01-10T04:05:33.009Z,20.63
2023-01-10T04:08:34.584Z,22.80
2023-01-10T04:11:36.236Z,20.20
2023-01-10T04:14:37.998Z,20.10
2023-01-10T04:17:40.605Z,22.07
2023-01-10T04:20:42.595Z,19.33
2023-01-10T04:23:46.828Z,16.70
2023-01-10T04:26:48.854Z,18.90
2023-01-10T04:29:53.695Z,17.63
2023-01-10T04:32:56.027Z,18.57
2023-01-10T04:35:57.820Z,18.10
2023-01-10T04:38:59.733Z,20.57
2023-01-10T04:42:01.496Z,17.47
2023-01-10T04:45:03.424Z,18.30
2023-01-10T04:48:05.532Z,19.90
2023-01-10T04:51:07.189Z,17.23
2023-01-10T04:54:08.833Z,16.90
2023-01-10T04:57:10.557Z,16.47
2023-01-10T05:00:12.750Z,18.47
2023-01-10T05:03:16.091Z,20.80
2023-01-10T05:06:18.048Z,22.67
2023-01-10T05:09:20.316Z,21.67
2023-01-10T05:12:21.914Z,22.77
2023-01-10T05:15:23.560Z,19.67
2023-01-10T05:18:25.952Z,21.47
2023-01-10T05:21:27.594Z,19.03
2023-01-10T05:24:29.277Z,23.47
2023-01-10T05:27:31.104Z,21.30
2023-01-10T05:30:32.713Z,21.53
2023-01-10T05:33:34.829Z,25.57
2023-01-10T05:36:36.408Z,24.60
2023-01-10T05:39:41.433Z,17.73
2023-01-10T05:42:43.101Z,15.97
2023-01-10T05:45:44.809Z,13.97
2023-01-10T05:48:46.367Z,15.40
2023-01-10T05:51:47.957Z,15.47
2023-01-10T05:54:49.541Z,15.33
2023-01-10T05:57:51.161Z,16.03
2023-01-10T06:00:54.138Z,17.73
2023-01-10T06:03:57.017Z,17.37
2023-01-10T06:07:01.591Z,17.10
2023-01-10T06:10:03.846Z,20.93
2023-01-10T06:13:05.501Z,23.97
2023-01-10T06:16:07.278Z,25.53
2023-01-10T06:19:09.456Z,21.63
2023-01-10T06:22:11.301Z,23.77
2023-01-10T06:25:13.555Z,19.83
2023-01-10T06:28:15.184Z,20.70
2023-01-10T06:31:16.882Z,21.27
2023-01-10T06:34:18.604Z,16.13
2023-01-10T06:37:20.355Z,14.63
2023-01-10T06:40:21.989Z,19.37
2023-01-10T06:43:25.776Z,15.40
2023-01-10T06:46:27.680Z,13.63
2023-01-10T06:49:30.017Z,14.97
2023-01-10T06:52:31.703Z,15.83
2023-01-10T06:55:33.334Z,15.20
2023-01-10T06:58:35.487Z,16.53
2023-01-10T07:01:37.199Z,14.93
2023-01-10T07:04:38.845Z,15.13
2023-01-10T07:07:40.422Z,16.43
2023-01-10T07:10:42.817Z,12.57
2023-01-10T07:13:44.518Z,13.80
2023-01-10T07:16:46.179Z,16.20
2023-01-10T07:19:47.798Z,15.80
2023-01-10T07:22:56.515Z,15.37
2023-01-10T07:25:59.220Z,16.60
2023-01-10T07:29:00.885Z,19.00
2023-01-10T07:32:02.680Z,17.60
2023-01-10T07:35:04.524Z,18.70
2023-01-10T07:38:06.228Z,17.83
2023-01-10T07:41:07.983Z,19.23
2023-01-10T07:44:09.640Z,21.13
2023-01-10T07:47:11.516Z,19.07
2023-01-10T07:50:13.141Z,17.67
2023-01-10T07:53:14.684Z,19.20
2023-01-10T07:56:16.241Z,15.13
2023-01-10T07:59:17.892Z,19.50
2023-01-10T08:02:19.619Z,15.80
2023-01-10T08:05:21.892Z,25.10
2023-01-10T08:08:23.527Z,22.73
2023-01-10T08:11:25.153Z,21.90
2023-01-10T08:14:26.888Z,23.77
2023-01-10T08:17:28.802Z,22.50
2023-01-10T08:20:31.093Z,23.57
2023-01-10T08:23:32.798Z,25.43
2023-01-10T08:26:34.605Z,19.27
2023-01-10T08:29:36.243Z,22.77
2023-01-10T08:32:37.897Z,24.83
2023-01-10T08:35:43.151Z,27.67
2023-01-10T08:38:45.384Z,24.37
2023-01-10T08:41:46.989Z,27.27
2023-01-10T08:44:48.598Z,25.57
2023-01-10T08:47:50.485Z,15.70
2023-01-10T08:50:52.099Z,18.10
2023-01-10T08:53:53.777Z,25.90
2023-01-10T08:56:55.323Z,15.10
2023-01-10T08:59:56.912Z,14.90
2023-01-10T09:02:58.717Z,24.40
2023-01-10T09:06:01.393Z,15.23
2023-01-10T09:09:03.435Z,17.30
2023-01-10T09:12:25.013Z,16.47
2023-01-10T09:15:28.268Z,19.00
2023-01-10T09:18:29.903Z,21.33
2023-01-10T09:21:31.494Z,53.77
2023-01-10T09:24:33.045Z,42.00
2023-01-10T09:27:34.636Z,30.63
2023-01-10T09:30:36.436Z,28.47
2023-01-10T09:33:47.025Z,30.40
2023-01-10T09:36:49.380Z,34.70
2023-01-10T09:39:52.968Z,37.20
2023-01-10T09:43:14.792Z,30.10
2023-01-10T09:46:16.515Z,30.63
2023-01-10T09:49:41.848Z,44.47
2023-01-10T09:52:46.422Z,35.10
2023-01-10T09:55:55.731Z,33.43
2023-01-10T09:58:59.189Z,28.20
2023-01-10T10:02:04.723Z,41.17
2023-01-10T10:05:24.552Z,32.03
2023-01-10T10:08:26.260Z,49.70
2023-01-10T10:11:27.819Z,46.37
2023-01-10T10:14:32.248Z,71.60
2023-01-10T10:17:33.908Z,27.53
2023-01-10T10:20:41.486Z,27.00
2023-01-10T10:23:43.056Z,32.03
2023-01-10T10:26:53.254Z,22.40
2023-01-10T10:29:54.813Z,33.40
2023-01-10T10:33:02.321Z,48.37
2023-01-10T10:36:09.091Z,43.53
2023-01-10T10:39:14.824Z,41.20
2023-01-10T10:42:17.726Z,39.63
2023-01-10T10:45:22.134Z,23.50
2023-01-10T10:48:27.095Z,32.20
2023-01-10T10:51:38.671Z,31.50
2023-01-10T10:54:40.281Z,45.97
2023-01-10T10:57:55.372Z,32.40
2023-01-10T11:01:01.682Z,22.90
2023-01-10T11:04:12.030Z,28.50
2023-01-10T11:07:16.615Z,27.13
2023-01-10T11:10:34.988Z,30.67
2023-01-10T11:13:43.385Z,30.10
2023-01-10T11:16:45.475Z,34.13
2023-01-10T11:19:56.433Z,42.97
2023-01-10T11:22:58.111Z,62.90
2023-01-10T11:26:00.464Z,37.23
2023-01-10T11:29:20.844Z,50.30
2023-01-10T11:32:39.195Z,67.30
2023-01-10T11:35:55.663Z,37.63
2023-01-10T11:39:04.486Z,43.20
2023-01-10T11:42:29.777Z,71.20
2023-01-10T11:45:33.436Z,87.43
2023-01-10T11:49:06.789Z,60.03
2023-01-10T11:52:27.357Z,247.53
2023-01-10T11:55:30.251Z,136.07
2023-01-10T11:58:33.175Z,135.37
2023-01-10T12:01:37.930Z,66.77
2023-01-10T12:04:41.233Z,67.40
2023-01-10T12:07:59.299Z,73.93
2023-01-10T12:11:08.279Z,62.27
2023-01-10T12:14:19.457Z,66.93
2023-01-10T12:17:37.474Z,59.77
2023-01-10T12:20:46.135Z,53.47
2023-01-10T12:23:49.392Z,58.83
2023-01-10T12:26:53.685Z,46.10
2023-01-10T12:30:07.359Z,55.33
2023-01-10T12:33:17.347Z,42.07
2023-01-10T12:36:26.677Z,41.73
2023-01-10T12:39:31.102Z,48.03
2023-01-10T12:43:02.129Z,51.50
2023-01-10T12:46:25.106Z,92.40
2023-01-10T12:49:34.923Z,42.63
2023-01-10T12:52:45.622Z,38.07
2023-01-10T12:55:47.739Z,37.60
2023-01-10T12:58:52.631Z,40.47
2023-01-10T13:01:56.744Z,42.63
2023-01-10T13:05:00.943Z,52.77
2023-01-10T13:08:17.599Z,59.20
2023-01-10T13:11:22.775Z,66.77
2023-01-10T13:14:31.414Z,54.77
2023-01-10T13:17:33.097Z,53.57
2023-01-10T13:20:39.131Z,54.30
2023-01-10T13:23:47.892Z,46.47
2023-01-10T13:27:00.007Z,50.03
2023-01-10T13:30:02.506Z,51.40
2023-01-10T13:33:06.049Z,64.43
2023-01-10T13:36:19.475Z,77.93
2023-01-10T13:39:21.079Z,80.03
2023-01-10T13:42:44.294Z,118.80
2023-01-10T13:45:45.945Z,137.50
2023-01-10T13:48:50.738Z,96.77
2023-01-10T13:52:15.429Z,51.07
2023-01-10T13:55:28.689Z,44.40
2023-01-10T13:58:58.360Z,89.17
2023-01-10T14:02:19.709Z,69.67
2023-01-10T14:05:24.078Z,62.07
2023-01-10T14:08:25.794Z,55.50
2023-01-10T14:11:30.111Z,56.27
2023-01-10T14:14:38.165Z,49.13
2023-01-10T14:17:40.350Z,35.80
2023-01-10T14:20:42.439Z,26.90
2023-01-10T14:23:48.629Z,24.27
2023-01-10T14:26:50.677Z,23.27
2023-01-10T14:29:58.002Z,24.60
2023-01-10T14:33:02.263Z,23.73
2023-01-10T14:36:07.702Z,19.77
2023-01-10T14:39:13.841Z,19.93
2023-01-10T14:42:16.741Z,20.07
2023-01-10T14:45:37.256Z,22.03
2023-01-10T14:48:46.403Z,14.80
2023-01-10T14:51:50.988Z,24.57
2023-01-10T14:55:12.349Z,15.93
2023-01-10T14:58:17.081Z,18.83
2023-01-10T15:01:24.633Z,17.57
2023-01-10T15:04:28.295Z,12.90
2023-01-10T15:07:29.985Z,12.73
2023-01-10T15:10:32.760Z,14.33
2023-01-10T15:13:36.677Z,14.27
2023-01-10T15:16:40.201Z,17.33
2023-01-10T15:19:41.886Z,20.03
2023-01-10T15:23:00.899Z,19.23
2023-01-10T15:26:04.311Z,19.63
2023-01-10T15:29:06.081Z,16.97
2023-01-10T15:32:12.123Z,22.17
2023-01-10T15:35:17.815Z,13.10
2023-01-10T15:38:24.123Z,12.93
2023-01-10T15:41:26.518Z,30.27
2023-01-10T15:44:45.070Z,26.50
2023-01-10T15:47:49.876Z,16.73
2023-01-10T15:51:04.310Z,12.73
2023-01-10T15:54:25.900Z,21.47
2023-01-10T15:57:33.031Z,20.13
2023-01-10T16:00:34.743Z,28.90
2023-01-10T16:03:38.287Z,17.07
2023-01-10T16:06:40.126Z,14.63
2023-01-10T16:09:41.833Z,14.43
2023-01-10T16:13:02.618Z,13.10
2023-01-10T16:16:08.462Z,17.87
2023-01-10T16:19:10.213Z,15.53
2023-01-10T16:22:13.494Z,17.40
2023-01-10T16:25:27.456Z,13.17
2023-01-10T16:28:33.084Z,16.87
2023-01-10T16:31:34.721Z,23.17
2023-01-10T16:34:36.290Z,12.27
2023-01-10T16:37:37.861Z,16.13
2023-01-10T16:40:41.007Z,21.20
2023-01-10T16:43:42.585Z,17.60
2023-01-10T16:46:44.123Z,26.83
2023-01-10T16:49:46.972Z,17.60
2023-01-10T16:52:48.617Z,27.47
2023-01-10T16:55:51.771Z,39.30
2023-01-10T16:58:54.574Z,29.07
2023-01-10T17:01:57.527Z,18.43
2023-01-10T17:04:59.417Z,15.57
2023-01-10T17:08:01.018Z,16.17
2023-01-10T17:11:06.528Z,12.33
2023-01-10T17:14:12.195Z,14.00
2023-01-10T17:17:13.788Z,13.07
2023-01-10T17:20:15.905Z,14.57
2023-01-10T17:23:17.940Z,23.37
2023-01-10T17:26:19.998Z,21.40
2023-01-10T17:29:23.323Z,24.17
2023-01-10T17:32:25.061Z,23.07
2023-01-10T17:35:32.471Z,20.20
2023-01-10T17:38:34.203Z,19.73
2023-01-10T17:41:35.926Z,8.70
2023-01-10T17:44:37.846Z,12.77
2023-01-10T17:47:39.556Z,26.70
2023-01-10T17:50:41.657Z,10.00
2023-01-10T17:53:43.306Z,10.70
2023-01-10T17:56:44.917Z,15.53
2023-01-10T17:59:46.549Z,16.10
2023-01-10T18:02:48.328Z,17.20
2023-01-10T18:05:50.669Z,12.67
2023-01-10T18:08:52.897Z,11.40
2023-01-10T18:11:54.679Z,17.20
2023-01-10T18:14:56.301Z,16.70
2023-01-10T18:17:58.000Z,14.67
2023-01-10T18:21:02.239Z,16.87
2023-01-10T18:24:04.125Z,12.60
2023-01-10T18:27:05.698Z,21.37
2023-01-10T18:30:07.776Z,14.30
2023-01-10T18:33:09.437Z,11.57
2023-01-10T18:36:15.258Z,10.93
2023-01-10T18:39:16.840Z,11.53
2023-01-10T18:42:18.491Z,13.83
2023-01-10T18:45:20.481Z,15.50
2023-01-10T18:48:23.927Z,20.43
2023-01-10T18:51:27.386Z,27.60
2023-01-10T18:54:29.127Z,21.00
2023-01-10T18:57:32.543Z,12.87
2023-01-10T19:00:34.218Z,10.47
2023-01-10T19:03:36.179Z,13.27
2023-01-10T19:06:37.847Z,12.67
2023-01-10T19:09:39.421Z,16.83
2023-01-10T19:12:42.367Z,20.33
2023-01-10T19:15:44.018Z,21.87
2023-01-10T19:18:53.224Z,17.97
2023-01-10T19:21:54.800Z,10.30
2023-01-10T19:24:56.428Z,5.07
2023-01-10T19:27:57.980Z,7.10
2023-01-10T19:31:04.452Z,7.40
2023-01-10T19:34:06.714Z,9.87
2023-01-10T19:37:08.321Z,8.87
2023-01-10T19:40:10.238Z,11.47
2023-01-10T19:43:11.853Z,12.90
2023-01-10T19:46:13.862Z,12.73
2023-01-10T19:49:17.767Z,8.63
2023-01-10T19:52:19.332Z,7.40
2023-01-10T19:55:22.247Z,8.70
2023-01-10T19:58:23.919Z,6.40
2023-01-10T20:01:27.299Z,13.57
2023-01-10T20:04:28.986Z,7.53
2023-01-10T20:07:30.645Z,8.10
2023-01-10T20:10:32.397Z,5.80
2023-01-10T20:13:35.637Z,7.23
2023-01-10T20:16:37.261Z,7.43
2023-01-10T20:19:40.676Z,6.43
2023-01-10T20:22:42.626Z,7.73
2023-01-10T20:25:45.239Z,10.10
2023-01-10T20:28:48.002Z,17.30
2023-01-10T20:31:52.755Z,20.07
2023-01-10T20:34:54.386Z,20.87
2023-01-10T20:37:56.012Z,14.93
2023-01-10T20:40:58.102Z,27.53
2023-01-10T20:44:00.129Z,32.70
2023-01-10T20:47:01.733Z,20.40
2023-01-10T20:50:03.520Z,15.03
2023-01-10T20:53:05.209Z,21.87
2023-01-10T20:56:08.387Z,34.20
2023-01-10T20:59:10.014Z,41.83
2023-01-10T21:02:11.712Z,46.17
2023-01-10T21:05:13.384Z,30.17
2023-01-10T21:08:14.915Z,26.63
2023-01-10T21:11:17.192Z,27.07
2023-01-10T21:14:18.797Z,27.97
2023-01-10T21:17:20.799Z,42.37
2023-01-10T21:20:22.399Z,47.23
2023-01-10T21:23:25.658Z,39.27
2023-01-10T21:26:27.281Z,34.87
2023-01-10T21:29:28.927Z,24.03
2023-01-10T21:32:30.504Z,19.50
2023-01-10T21:35:32.725Z,15.37
2023-01-10T21:38:36.329Z,17.90
2023-01-10T21:41:56.601Z,15.67
2023-01-10T21:44:58.307Z,15.93
2023-01-10T21:47:59.966Z,15.97
2023-01-10T21:51:01.582Z,13.87
2023-01-10T21:54:03.310Z,15.83
2023-01-10T21:57:05.087Z,22.30
2023-01-10T22:00:07.055Z,23.57
2023-01-10T22:03:13.099Z,20.03
2023-01-10T22:06:14.748Z,18.40
2023-01-10T22:09:16.480Z,20.47
2023-01-10T22:12:18.698Z,16.93
2023-01-10T22:15:20.916Z,15.67
2023-01-10T22:18:22.550Z,19.13
2023-01-10T22:21:24.144Z,26.03
2023-01-10T22:24:25.753Z,35.43
2023-01-10T22:27:28.733Z,29.63
2023-01-10T22:30:30.328Z,20.90
2023-01-10T22:33:33.217Z,17.70
2023-01-10T22:36:34.931Z,20.63
2023-01-10T22:39:36.493Z,20.47
2023-01-10T22:42:38.177Z,21.37
2023-01-10T22:45:42.995Z,23.57
2023-01-10T22:48:44.826Z,24.57
2023-01-10T22:51:46.492Z,23.50
2023-01-10T22:54:48.109Z,25.77
2023-01-10T22:57:49.730Z,25.70
2023-01-10T23:00:51.673Z,18.07
2023-01-10T23:03:53.329Z,26.20
2023-01-10T23:06:56.784Z,23.47
2023-01-10T23:09:58.468Z,25.63
2023-01-10T23:13:02.123Z,28.07
2023-01-10T23:16:03.850Z,30.13
2023-01-10T23:19:05.453Z,29.63
2023-01-10T23:22:07.073Z,26.10
2023-01-10T23:25:08.933Z,23.30
2023-01-10T23:28:10.567Z,23.53
2023-01-10T23:31:12.667Z,19.57
2023-01-10T23:34:14.287Z,19.23
2023-01-10T23:37:15.869Z,16.47
2023-01-10T23:40:17.603Z,19.57
2023-01-10T23:43:19.248Z,17.50
2023-01-10T23:46:21.320Z,18.77
2023-01-10T23:49:22.953Z,20.33
2023-01-10T23:52:24.614Z,21.03
2023-01-10T23:55:26.221Z,20.33
2023-01-10T23:58:27.964Z,24.67
